sensor_id;sensor_type;location;lat;lon;timestamp;P1;durP1;ratioP1;P2;durP2;ratioP2
4323;SDS011;2175;51.018;6.994;2023-02-08T00:00:19;22.55;;;12.25;;
4323;SDS011;2175;51.018;6.994;2023-02-08T00:02:48;20.10;;;11.23;;
4323;SDS011;2175;51.018;6.994;2023-02-08T00:05:14;17.25;;;11.20;;
4323;SDS011;2175;51.018;6.994;2023-02-08T00:07:40;18.50;;;11.63;;
4323;SDS011;2175;51.018;6.994;2023-02-08T00:10:06;23.77;;;12.00;;
4323;SDS011;2175;51.018;6.994;2023-02-08T00:12:32;18.10;;;11.55;;
4323;SDS011;2175;51.018;6.994;2023-02-08T00:14:58;16.90;;;10.00;;
4323;SDS011;2175;51.018;6.994;2023-02-08T00:17:24;17.53;;;11.30;;
4323;SDS011;2175;51.018;6.994;2023-02-08T00:19:49;19.17;;;11.43;;
4323;SDS011;2175;51.018;6.994;2023-02-08T00:22:15;20.00;;;11.07;;
4323;SDS011;2175;51.018;6.994;2023-02-08T00:24:40;17.80;;;11.33;;
4323;SDS011;2175;51.018;6.994;2023-02-08T00:27:06;17.10;;;10.90;;
4323;SDS011;2175;51.018;6.994;2023-02-08T00:29:32;18.90;;;11.37;;
4323;SDS011;2175;51.018;6.994;2023-02-08T00:31:57;17.40;;;10.57;;
4323;SDS011;2175;51.018;6.994;2023-02-08T00:34:23;17.20;;;10.80;;
4323;SDS011;2175;51.018;6.994;2023-02-08T00:36:48;20.10;;;11.80;;
4323;SDS011;2175;51.018;6.994;2023-02-08T00:39:14;17.20;;;11.60;;
4323;SDS011;2175;51.018;6.994;2023-02-08T00:41:40;18.97;;;11.20;;
4323;SDS011;2175;51.018;6.994;2023-02-08T00:44:05;18.17;;;11.27;;
4323;SDS011;2175;51.018;6.994;2023-02-08T00:46:31;19.07;;;11.00;;
4323;SDS011;2175;51.018;6.994;2023-02-08T00:48:57;18.93;;;10.53;;
4323;SDS011;2175;51.018;6.994;2023-02-08T00:51:22;16.67;;;10.77;;
4323;SDS011;2175;51.018;6.994;2023-02-08T00:53:48;17.50;;;10.90;;
4323;SDS011;2175;51.018;6.994;2023-02-08T00:56:14;19.17;;;11.57;;
4323;SDS011;2175;51.018;6.994;2023-02-08T00:58:42;22.33;;;12.00;;
4323;SDS011;2175;51.018;6.994;2023-02-08T01:01:08;22.35;;;11.90;;
4323;SDS011;2175;51.018;6.994;2023-02-08T01:03:36;16.27;;;11.27;;
4323;SDS011;2175;51.018;6.994;2023-02-08T01:06:05;19.40;;;11.55;;
4323;SDS011;2175;51.018;6.994;2023-02-08T01:08:32;16.80;;;10.90;;
4323;SDS011;2175;51.018;6.994;2023-02-08T01:11:12;17.20;;;10.90;;
4323;SDS011;2175;51.018;6.994;2023-02-08T01:13:42;18.42;;;11.52;;
4323;SDS011;2175;51.018;6.994;2023-02-08T01:18:34;16.93;;;11.20;;
4323;SDS011;2175;51.018;6.994;2023-02-08T01:21:04;19.63;;;12.27;;
4323;SDS011;2175;51.018;6.994;2023-02-08T01:23:31;20.90;;;12.55;;
4323;SDS011;2175;51.018;6.994;2023-02-08T01:25:57;22.90;;;12.73;;
4323;SDS011;2175;51.018;6.994;2023-02-08T01:28:22;18.23;;;11.63;;
4323;SDS011;2175;51.018;6.994;2023-02-08T01:30:48;21.70;;;12.10;;
4323;SDS011;2175;51.018;6.994;2023-02-08T01:33:13;19.77;;;11.93;;
4323;SDS011;2175;51.018;6.994;2023-02-08T01:35:39;24.80;;;13.20;;
4323;SDS011;2175;51.018;6.994;2023-02-08T01:38:05;22.83;;;12.03;;
4323;SDS011;2175;51.018;6.994;2023-02-08T01:40:30;22.70;;;12.83;;
4323;SDS011;2175;51.018;6.994;2023-02-08T01:42:56;21.50;;;13.33;;
4323;SDS011;2175;51.018;6.994;2023-02-08T01:45:26;20.83;;;12.27;;
4323;SDS011;2175;51.018;6.994;2023-02-08T01:48:02;22.10;;;13.23;;
4323;SDS011;2175;51.018;6.994;2023-02-08T01:50:33;21.20;;;13.13;;
4323;SDS011;2175;51.018;6.994;2023-02-08T01:53:05;19.75;;;12.50;;
4323;SDS011;2175;51.018;6.994;2023-02-08T01:55:33;22.23;;;13.10;;
4323;SDS011;2175;51.018;6.994;2023-02-08T01:58:03;20.35;;;12.27;;
4323;SDS011;2175;51.018;6.994;2023-02-08T02:00:31;16.15;;;10.65;;
4323;SDS011;2175;51.018;6.994;2023-02-08T02:02:58;19.33;;;11.52;;
4323;SDS011;2175;51.018;6.994;2023-02-08T02:05:31;24.30;;;11.05;;
4323;SDS011;2175;51.018;6.994;2023-02-08T02:08:09;19.10;;;11.60;;
4323;SDS011;2175;51.018;6.994;2023-02-08T02:10:37;20.83;;;12.38;;
4323;SDS011;2175;51.018;6.994;2023-02-08T02:13:08;24.92;;;12.80;;
4323;SDS011;2175;51.018;6.994;2023-02-08T02:15:38;22.05;;;12.65;;
4323;SDS011;2175;51.018;6.994;2023-02-08T02:18:04;26.77;;;12.30;;
4323;SDS011;2175;51.018;6.994;2023-02-08T02:20:40;20.83;;;12.82;;
4323;SDS011;2175;51.018;6.994;2023-02-08T02:25:55;20.02;;;11.18;;
4323;SDS011;2175;51.018;6.994;2023-02-08T02:40:25;19.50;;;12.05;;
4323;SDS011;2175;51.018;6.994;2023-02-08T02:51:48;20.20;;;12.40;;
4323;SDS011;2175;51.018;6.994;2023-02-08T02:56:54;19.50;;;11.90;;
4323;SDS011;2175;51.018;6.994;2023-02-08T02:59:24;19.98;;;12.32;;
4323;SDS011;2175;51.018;6.994;2023-02-08T03:01:52;22.63;;;11.60;;
4323;SDS011;2175;51.018;6.994;2023-02-08T03:09:51;18.77;;;11.43;;
4323;SDS011;2175;51.018;6.994;2023-02-08T03:26:03;19.38;;;12.45;;
4323;SDS011;2175;51.018;6.994;2023-02-08T03:28:47;19.35;;;12.13;;
4323;SDS011;2175;51.018;6.994;2023-02-08T03:31:44;19.25;;;11.90;;
4323;SDS011;2175;51.018;6.994;2023-02-08T03:34:15;20.58;;;12.55;;
4323;SDS011;2175;51.018;6.994;2023-02-08T03:37:10;23.13;;;14.27;;
4323;SDS011;2175;51.018;6.994;2023-02-08T03:39:44;21.45;;;13.20;;
4323;SDS011;2175;51.018;6.994;2023-02-08T03:42:18;23.10;;;12.35;;
4323;SDS011;2175;51.018;6.994;2023-02-08T03:44:55;19.42;;;12.60;;
4323;SDS011;2175;51.018;6.994;2023-02-08T03:47:26;25.73;;;12.70;;
4323;SDS011;2175;51.018;6.994;2023-02-08T03:49:55;21.33;;;13.18;;
4323;SDS011;2175;51.018;6.994;2023-02-08T03:52:23;24.70;;;15.25;;
4323;SDS011;2175;51.018;6.994;2023-02-08T03:54:51;26.13;;;14.20;;
4323;SDS011;2175;51.018;6.994;2023-02-08T03:57:23;17.63;;;11.27;;
4323;SDS011;2175;51.018;6.994;2023-02-08T03:59:56;23.25;;;14.07;;
4323;SDS011;2175;51.018;6.994;2023-02-08T04:02:37;21.50;;;12.23;;
4323;SDS011;2175;51.018;6.994;2023-02-08T04:05:08;22.17;;;12.80;;
4323;SDS011;2175;51.018;6.994;2023-02-08T04:07:34;19.77;;;12.55;;
4323;SDS011;2175;51.018;6.994;2023-02-08T04:10:00;20.13;;;12.87;;
4323;SDS011;2175;51.018;6.994;2023-02-08T04:12:26;23.80;;;12.93;;
4323;SDS011;2175;51.018;6.994;2023-02-08T04:14:51;25.50;;;13.80;;
4323;SDS011;2175;51.018;6.994;2023-02-08T04:17:17;23.07;;;12.67;;
4323;SDS011;2175;51.018;6.994;2023-02-08T04:19:42;21.10;;;12.63;;
4323;SDS011;2175;51.018;6.994;2023-02-08T04:22:08;23.10;;;13.40;;
4323;SDS011;2175;51.018;6.994;2023-02-08T04:24:34;18.93;;;12.40;;
4323;SDS011;2175;51.018;6.994;2023-02-08T04:26:59;17.83;;;11.83;;
4323;SDS011;2175;51.018;6.994;2023-02-08T04:29:25;22.20;;;13.00;;
4323;SDS011;2175;51.018;6.994;2023-02-08T04:31:51;24.98;;;12.82;;
4323;SDS011;2175;51.018;6.994;2023-02-08T04:34:17;22.47;;;12.40;;
4323;SDS011;2175;51.018;6.994;2023-02-08T04:36:42;18.60;;;11.97;;
4323;SDS011;2175;51.018;6.994;2023-02-08T04:39:08;21.43;;;12.70;;
4323;SDS011;2175;51.018;6.994;2023-02-08T04:41:33;19.63;;;10.97;;
4323;SDS011;2175;51.018;6.994;2023-02-08T04:43:59;20.80;;;12.43;;
4323;SDS011;2175;51.018;6.994;2023-02-08T04:46:24;19.30;;;11.43;;
4323;SDS011;2175;51.018;6.994;2023-02-08T04:48:50;21.70;;;12.03;;
4323;SDS011;2175;51.018;6.994;2023-02-08T04:51:16;22.50;;;12.37;;
4323;SDS011;2175;51.018;6.994;2023-02-08T04:53:41;18.43;;;12.30;;
4323;SDS011;2175;51.018;6.994;2023-02-08T04:56:07;21.63;;;12.77;;
4323;SDS011;2175;51.018;6.994;2023-02-08T04:58:32;22.17;;;13.53;;
4323;SDS011;2175;51.018;6.994;2023-02-08T05:00:59;21.13;;;12.52;;
4323;SDS011;2175;51.018;6.994;2023-02-08T05:03:25;19.07;;;11.90;;
4323;SDS011;2175;51.018;6.994;2023-02-08T05:05:57;20.17;;;11.70;;
4323;SDS011;2175;51.018;6.994;2023-02-08T05:08:24;18.33;;;11.75;;
4323;SDS011;2175;51.018;6.994;2023-02-08T05:10:50;19.53;;;11.60;;
4323;SDS011;2175;51.018;6.994;2023-02-08T05:13:15;21.13;;;12.30;;
4323;SDS011;2175;51.018;6.994;2023-02-08T05:15:41;23.77;;;12.40;;
4323;SDS011;2175;51.018;6.994;2023-02-08T05:18:07;19.30;;;12.40;;
4323;SDS011;2175;51.018;6.994;2023-02-08T05:20:32;20.87;;;12.23;;
4323;SDS011;2175;51.018;6.994;2023-02-08T05:22:58;19.83;;;11.73;;
4323;SDS011;2175;51.018;6.994;2023-02-08T05:25:24;30.13;;;12.20;;
4323;SDS011;2175;51.018;6.994;2023-02-08T05:27:49;32.53;;;12.50;;
4323;SDS011;2175;51.018;6.994;2023-02-08T05:30:15;22.20;;;13.20;;
4323;SDS011;2175;51.018;6.994;2023-02-08T05:32:41;20.57;;;12.57;;
4323;SDS011;2175;51.018;6.994;2023-02-08T05:35:07;20.90;;;11.90;;
4323;SDS011;2175;51.018;6.994;2023-02-08T05:37:32;22.73;;;11.80;;
4323;SDS011;2175;51.018;6.994;2023-02-08T05:39:58;19.90;;;11.43;;
4323;SDS011;2175;51.018;6.994;2023-02-08T05:42:23;19.10;;;10.90;;
4323;SDS011;2175;51.018;6.994;2023-02-08T05:44:49;20.90;;;11.07;;
4323;SDS011;2175;51.018;6.994;2023-02-08T05:47:16;19.23;;;10.85;;
4323;SDS011;2175;51.018;6.994;2023-02-08T05:49:42;21.93;;;12.17;;
4323;SDS011;2175;51.018;6.994;2023-02-08T05:52:07;20.03;;;11.17;;
4323;SDS011;2175;51.018;6.994;2023-02-08T05:54:33;21.87;;;11.60;;
4323;SDS011;2175;51.018;6.994;2023-02-08T05:56:58;21.97;;;12.30;;
4323;SDS011;2175;51.018;6.994;2023-02-08T05:59:24;21.60;;;11.90;;
4323;SDS011;2175;51.018;6.994;2023-02-08T06:01:50;18.73;;;11.33;;
4323;SDS011;2175;51.018;6.994;2023-02-08T06:04:15;17.53;;;11.00;;
4323;SDS011;2175;51.018;6.994;2023-02-08T06:06:41;18.70;;;12.20;;
4323;SDS011;2175;51.018;6.994;2023-02-08T06:09:06;22.43;;;12.67;;
4323;SDS011;2175;51.018;6.994;2023-02-08T06:11:32;27.03;;;12.00;;
4323;SDS011;2175;51.018;6.994;2023-02-08T06:14:00;18.83;;;11.40;;
4323;SDS011;2175;51.018;6.994;2023-02-08T06:16:26;21.07;;;12.20;;
4323;SDS011;2175;51.018;6.994;2023-02-08T06:18:51;19.93;;;12.20;;
4323;SDS011;2175;51.018;6.994;2023-02-08T06:21:17;22.87;;;13.10;;
4323;SDS011;2175;51.018;6.994;2023-02-08T06:23:43;27.93;;;11.57;;
4323;SDS011;2175;51.018;6.994;2023-02-08T06:26:08;20.43;;;12.40;;
4323;SDS011;2175;51.018;6.994;2023-02-08T06:28:34;19.10;;;11.53;;
4323;SDS011;2175;51.018;6.994;2023-02-08T06:30:59;19.83;;;11.17;;
4323;SDS011;2175;51.018;6.994;2023-02-08T06:33:25;18.50;;;11.83;;
4323;SDS011;2175;51.018;6.994;2023-02-08T06:35:51;20.77;;;11.77;;
4323;SDS011;2175;51.018;6.994;2023-02-08T06:38:17;21.25;;;11.20;;
4323;SDS011;2175;51.018;6.994;2023-02-08T06:40:45;20.55;;;11.50;;
4323;SDS011;2175;51.018;6.994;2023-02-08T06:43:11;17.88;;;11.50;;
4323;SDS011;2175;51.018;6.994;2023-02-08T06:45:37;17.90;;;11.47;;
4323;SDS011;2175;51.018;6.994;2023-02-08T06:48:03;21.40;;;12.17;;
4323;SDS011;2175;51.018;6.994;2023-02-08T06:50:29;24.13;;;11.93;;
4323;SDS011;2175;51.018;6.994;2023-02-08T06:52:55;23.00;;;12.63;;
4323;SDS011;2175;51.018;6.994;2023-02-08T06:55:20;22.20;;;12.70;;
4323;SDS011;2175;51.018;6.994;2023-02-08T06:57:46;21.23;;;12.47;;
4323;SDS011;2175;51.018;6.994;2023-02-08T07:00:11;20.40;;;13.00;;
4323;SDS011;2175;51.018;6.994;2023-02-08T07:02:37;21.60;;;12.07;;
4323;SDS011;2175;51.018;6.994;2023-02-08T07:05:03;21.83;;;11.70;;
4323;SDS011;2175;51.018;6.994;2023-02-08T07:07:29;22.23;;;12.38;;
4323;SDS011;2175;51.018;6.994;2023-02-08T07:09:54;19.73;;;11.60;;
4323;SDS011;2175;51.018;6.994;2023-02-08T07:12:20;18.73;;;11.70;;
4323;SDS011;2175;51.018;6.994;2023-02-08T07:14:46;22.93;;;12.57;;
4323;SDS011;2175;51.018;6.994;2023-02-08T07:17:12;21.73;;;12.13;;
4323;SDS011;2175;51.018;6.994;2023-02-08T07:19:38;22.67;;;13.43;;
4323;SDS011;2175;51.018;6.994;2023-02-08T07:22:04;18.70;;;12.15;;
4323;SDS011;2175;51.018;6.994;2023-02-08T07:24:36;24.88;;;13.02;;
4323;SDS011;2175;51.018;6.994;2023-02-08T07:27:04;21.35;;;13.32;;
4323;SDS011;2175;51.018;6.994;2023-02-08T07:29:31;28.42;;;13.90;;
4323;SDS011;2175;51.018;6.994;2023-02-08T07:31:58;32.30;;;12.75;;
4323;SDS011;2175;51.018;6.994;2023-02-08T07:34:25;22.73;;;12.27;;
4323;SDS011;2175;51.018;6.994;2023-02-08T07:36:53;21.20;;;12.85;;
4323;SDS011;2175;51.018;6.994;2023-02-08T07:39:19;24.13;;;12.87;;
4323;SDS011;2175;51.018;6.994;2023-02-08T07:41:44;19.13;;;11.77;;
4323;SDS011;2175;51.018;6.994;2023-02-08T07:44:11;19.70;;;12.05;;
4323;SDS011;2175;51.018;6.994;2023-02-08T07:46:36;22.30;;;12.07;;
4323;SDS011;2175;51.018;6.994;2023-02-08T07:49:02;20.07;;;11.97;;
4323;SDS011;2175;51.018;6.994;2023-02-08T07:51:27;23.77;;;13.17;;
4323;SDS011;2175;51.018;6.994;2023-02-08T07:53:53;25.53;;;13.40;;
4323;SDS011;2175;51.018;6.994;2023-02-08T07:56:18;22.10;;;12.23;;
4323;SDS011;2175;51.018;6.994;2023-02-08T07:58:44;20.37;;;12.20;;
4323;SDS011;2175;51.018;6.994;2023-02-08T08:01:10;22.13;;;12.23;;
4323;SDS011;2175;51.018;6.994;2023-02-08T08:03:35;22.17;;;12.93;;
4323;SDS011;2175;51.018;6.994;2023-02-08T08:06:01;17.63;;;11.60;;
4323;SDS011;2175;51.018;6.994;2023-02-08T08:08:26;21.60;;;12.60;;
4323;SDS011;2175;51.018;6.994;2023-02-08T08:10:52;24.07;;;13.60;;
4323;SDS011;2175;51.018;6.994;2023-02-08T08:13:18;23.70;;;12.40;;
4323;SDS011;2175;51.018;6.994;2023-02-08T08:15:44;19.80;;;12.57;;
4323;SDS011;2175;51.018;6.994;2023-02-08T08:18:10;26.90;;;13.23;;
4323;SDS011;2175;51.018;6.994;2023-02-08T08:20:36;21.73;;;12.70;;
4323;SDS011;2175;51.018;6.994;2023-02-08T08:23:02;20.70;;;12.80;;
4323;SDS011;2175;51.018;6.994;2023-02-08T08:25:28;24.17;;;12.77;;
4323;SDS011;2175;51.018;6.994;2023-02-08T08:27:53;26.67;;;12.33;;
4323;SDS011;2175;51.018;6.994;2023-02-08T08:30:19;25.80;;;13.30;;
4323;SDS011;2175;51.018;6.994;2023-02-08T08:32:45;21.15;;;13.27;;
4323;SDS011;2175;51.018;6.994;2023-02-08T08:35:11;24.30;;;11.90;;
4323;SDS011;2175;51.018;6.994;2023-02-08T08:37:37;18.67;;;12.40;;
4323;SDS011;2175;51.018;6.994;2023-02-08T08:40:04;19.77;;;12.37;;
4323;SDS011;2175;51.018;6.994;2023-02-08T08:42:31;27.63;;;13.00;;
4323;SDS011;2175;51.018;6.994;2023-02-08T08:44:57;20.00;;;12.93;;
4323;SDS011;2175;51.018;6.994;2023-02-08T08:47:23;20.20;;;12.40;;
4323;SDS011;2175;51.018;6.994;2023-02-08T08:49:48;22.60;;;13.23;;
4323;SDS011;2175;51.018;6.994;2023-02-08T08:52:14;22.50;;;12.30;;
4323;SDS011;2175;51.018;6.994;2023-02-08T08:54:40;18.80;;;12.50;;
4323;SDS011;2175;51.018;6.994;2023-02-08T08:57:06;18.43;;;11.50;;
4323;SDS011;2175;51.018;6.994;2023-02-08T08:59:31;19.67;;;12.47;;
4323;SDS011;2175;51.018;6.994;2023-02-08T09:01:57;18.50;;;11.07;;
4323;SDS011;2175;51.018;6.994;2023-02-08T09:04:23;16.67;;;10.75;;
4323;SDS011;2175;51.018;6.994;2023-02-08T09:06:49;18.60;;;10.20;;
4323;SDS011;2175;51.018;6.994;2023-02-08T09:09:16;19.70;;;10.88;;
4323;SDS011;2175;51.018;6.994;2023-02-08T09:11:42;23.38;;;10.80;;
4323;SDS011;2175;51.018;6.994;2023-02-08T09:14:07;20.67;;;11.30;;
4323;SDS011;2175;51.018;6.994;2023-02-08T09:16:33;24.53;;;10.87;;
4323;SDS011;2175;51.018;6.994;2023-02-08T09:19:00;26.87;;;12.10;;
4323;SDS011;2175;51.018;6.994;2023-02-08T09:21:29;16.08;;;9.85;;
4323;SDS011;2175;51.018;6.994;2023-02-08T09:23:55;17.92;;;10.32;;
4323;SDS011;2175;51.018;6.994;2023-02-08T09:26:21;16.77;;;10.30;;
4323;SDS011;2175;51.018;6.994;2023-02-08T09:28:47;17.45;;;10.40;;
4323;SDS011;2175;51.018;6.994;2023-02-08T09:31:23;21.67;;;10.47;;
4323;SDS011;2175;51.018;6.994;2023-02-08T09:33:51;17.85;;;9.90;;
4323;SDS011;2175;51.018;6.994;2023-02-08T09:36:18;16.10;;;8.80;;
4323;SDS011;2175;51.018;6.994;2023-02-08T09:38:45;18.58;;;9.32;;
4323;SDS011;2175;51.018;6.994;2023-02-08T09:41:26;14.20;;;8.30;;
4323;SDS011;2175;51.018;6.994;2023-02-08T09:47:15;13.07;;;8.63;;
4323;SDS011;2175;51.018;6.994;2023-02-08T09:52:53;17.08;;;8.10;;
4323;SDS011;2175;51.018;6.994;2023-02-08T09:55:30;14.13;;;8.40;;
4323;SDS011;2175;51.018;6.994;2023-02-08T09:58:00;18.17;;;10.38;;
4323;SDS011;2175;51.018;6.994;2023-02-08T10:00:37;20.25;;;10.20;;
4323;SDS011;2175;51.018;6.994;2023-02-08T10:03:17;14.60;;;8.93;;
4323;SDS011;2175;51.018;6.994;2023-02-08T10:05:54;22.90;;;9.30;;
4323;SDS011;2175;51.018;6.994;2023-02-08T10:08:19;15.60;;;9.43;;
4323;SDS011;2175;51.018;6.994;2023-02-08T10:10:50;12.93;;;8.80;;
4323;SDS011;2175;51.018;6.994;2023-02-08T10:13:40;12.25;;;8.13;;
4323;SDS011;2175;51.018;6.994;2023-02-08T10:35:23;14.15;;;8.02;;
4323;SDS011;2175;51.018;6.994;2023-02-08T10:38:25;11.25;;;6.88;;
4323;SDS011;2175;51.018;6.994;2023-02-08T10:40:57;12.52;;;7.25;;
4323;SDS011;2175;51.018;6.994;2023-02-08T10:43:36;12.80;;;7.43;;
4323;SDS011;2175;51.018;6.994;2023-02-08T10:51:32;10.87;;;7.10;;
4323;SDS011;2175;51.018;6.994;2023-02-08T10:53:57;13.07;;;7.50;;
4323;SDS011;2175;51.018;6.994;2023-02-08T10:59:12;8.90;;;6.57;;
4323;SDS011;2175;51.018;6.994;2023-02-08T11:01:38;8.40;;;5.57;;
4323;SDS011;2175;51.018;6.994;2023-02-08T11:04:05;9.83;;;6.23;;
4323;SDS011;2175;51.018;6.994;2023-02-08T11:06:34;7.03;;;5.13;;
4323;SDS011;2175;51.018;6.994;2023-02-08T11:09:00;11.07;;;5.57;;
4323;SDS011;2175;51.018;6.994;2023-02-08T11:11:26;9.70;;;5.70;;
4323;SDS011;2175;51.018;6.994;2023-02-08T11:14:07;7.77;;;4.77;;
4323;SDS011;2175;51.018;6.994;2023-02-08T11:16:41;9.83;;;5.30;;
4323;SDS011;2175;51.018;6.994;2023-02-08T11:19:20;6.93;;;4.83;;
4323;SDS011;2175;51.018;6.994;2023-02-08T11:21:55;8.77;;;5.63;;
4323;SDS011;2175;51.018;6.994;2023-02-08T11:32:40;8.67;;;4.53;;
4323;SDS011;2175;51.018;6.994;2023-02-08T11:35:25;7.60;;;4.70;;
4323;SDS011;2175;51.018;6.994;2023-02-08T11:37:57;6.77;;;4.57;;
4323;SDS011;2175;51.018;6.994;2023-02-08T11:40:24;8.40;;;5.33;;
4323;SDS011;2175;51.018;6.994;2023-02-08T11:43:01;8.60;;;4.90;;
4323;SDS011;2175;51.018;6.994;2023-02-08T11:45:29;8.37;;;4.83;;
4323;SDS011;2175;51.018;6.994;2023-02-08T11:47:56;7.60;;;5.13;;
4323;SDS011;2175;51.018;6.994;2023-02-08T11:53:02;8.17;;;5.07;;
4323;SDS011;2175;51.018;6.994;2023-02-08T11:55:31;6.83;;;4.60;;
4323;SDS011;2175;51.018;6.994;2023-02-08T11:58:04;6.90;;;4.90;;
4323;SDS011;2175;51.018;6.994;2023-02-08T12:00:37;11.50;;;4.93;;
4323;SDS011;2175;51.018;6.994;2023-02-08T12:03:04;9.90;;;5.07;;
4323;SDS011;2175;51.018;6.994;2023-02-08T12:06:18;6.13;;;4.60;;
4323;SDS011;2175;51.018;6.994;2023-02-08T12:16:36;7.33;;;4.47;;
4323;SDS011;2175;51.018;6.994;2023-02-08T12:21:40;7.57;;;4.60;;
4323;SDS011;2175;51.018;6.994;2023-02-08T12:24:19;6.60;;;4.00;;
4323;SDS011;2175;51.018;6.994;2023-02-08T12:29:50;7.10;;;4.13;;
4323;SDS011;2175;51.018;6.994;2023-02-08T12:38:01;6.87;;;4.20;;
4323;SDS011;2175;51.018;6.994;2023-02-08T12:52:08;6.33;;;4.13;;
4323;SDS011;2175;51.018;6.994;2023-02-08T12:57:11;6.93;;;4.00;;
4323;SDS011;2175;51.018;6.994;2023-02-08T12:59:42;5.10;;;3.90;;
4323;SDS011;2175;51.018;6.994;2023-02-08T13:02:19;7.10;;;4.47;;
4323;SDS011;2175;51.018;6.994;2023-02-08T13:04:49;6.70;;;4.47;;
4323;SDS011;2175;51.018;6.994;2023-02-08T13:07:32;6.60;;;4.13;;
4323;SDS011;2175;51.018;6.994;2023-02-08T13:10:07;7.20;;;4.30;;
4323;SDS011;2175;51.018;6.994;2023-02-08T13:12:54;6.80;;;3.80;;
4323;SDS011;2175;51.018;6.994;2023-02-08T13:15:34;8.77;;;4.70;;
4323;SDS011;2175;51.018;6.994;2023-02-08T13:18:12;6.40;;;3.77;;
4323;SDS011;2175;51.018;6.994;2023-02-08T13:20:48;8.10;;;4.47;;
4323;SDS011;2175;51.018;6.994;2023-02-08T13:23:22;7.10;;;4.10;;
4323;SDS011;2175;51.018;6.994;2023-02-08T13:26:01;6.70;;;4.27;;
4323;SDS011;2175;51.018;6.994;2023-02-08T13:28:31;7.00;;;4.20;;
4323;SDS011;2175;51.018;6.994;2023-02-08T13:30:58;7.10;;;4.10;;
4323;SDS011;2175;51.018;6.994;2023-02-08T13:36:32;10.87;;;4.20;;
4323;SDS011;2175;51.018;6.994;2023-02-08T13:39:01;6.57;;;4.10;;
4323;SDS011;2175;51.018;6.994;2023-02-08T13:41:51;7.93;;;4.30;;
4323;SDS011;2175;51.018;6.994;2023-02-08T13:44:19;5.97;;;3.73;;
4323;SDS011;2175;51.018;6.994;2023-02-08T13:46:54;7.73;;;4.30;;
4323;SDS011;2175;51.018;6.994;2023-02-08T13:49:41;6.13;;;3.83;;
4323;SDS011;2175;51.018;6.994;2023-02-08T13:52:44;7.60;;;4.53;;
4323;SDS011;2175;51.018;6.994;2023-02-08T13:58:02;8.93;;;4.23;;
4323;SDS011;2175;51.018;6.994;2023-02-08T14:00:34;9.23;;;4.43;;
4323;SDS011;2175;51.018;6.994;2023-02-08T14:08:22;6.70;;;4.03;;
4323;SDS011;2175;51.018;6.994;2023-02-08T14:11:15;11.73;;;4.40;;
4323;SDS011;2175;51.018;6.994;2023-02-08T14:13:48;6.13;;;4.20;;
4323;SDS011;2175;51.018;6.994;2023-02-08T14:18:55;5.53;;;4.00;;
4323;SDS011;2175;51.018;6.994;2023-02-08T14:24:02;6.20;;;3.80;;
4323;SDS011;2175;51.018;6.994;2023-02-08T14:26:30;6.83;;;4.10;;
4323;SDS011;2175;51.018;6.994;2023-02-08T14:28:57;6.30;;;4.20;;
4323;SDS011;2175;51.018;6.994;2023-02-08T14:31:39;6.23;;;3.90;;
4323;SDS011;2175;51.018;6.994;2023-02-08T14:34:18;4.47;;;3.23;;
4323;SDS011;2175;51.018;6.994;2023-02-08T14:36:57;5.80;;;4.00;;
4323;SDS011;2175;51.018;6.994;2023-02-08T14:39:46;5.50;;;3.80;;
4323;SDS011;2175;51.018;6.994;2023-02-08T14:42:16;6.63;;;3.37;;
4323;SDS011;2175;51.018;6.994;2023-02-08T14:45:26;7.03;;;4.00;;
4323;SDS011;2175;51.018;6.994;2023-02-08T14:50:41;7.93;;;3.90;;
4323;SDS011;2175;51.018;6.994;2023-02-08T14:53:18;5.87;;;4.03;;
4323;SDS011;2175;51.018;6.994;2023-02-08T14:58:44;8.07;;;4.50;;
4323;SDS011;2175;51.018;6.994;2023-02-08T15:01:21;6.90;;;4.13;;
4323;SDS011;2175;51.018;6.994;2023-02-08T15:03:58;6.13;;;4.00;;
4323;SDS011;2175;51.018;6.994;2023-02-08T15:09:15;7.50;;;4.20;;
4323;SDS011;2175;51.018;6.994;2023-02-08T15:11:41;5.37;;;3.70;;
4323;SDS011;2175;51.018;6.994;2023-02-08T15:14:15;7.97;;;4.23;;
4323;SDS011;2175;51.018;6.994;2023-02-08T15:16:43;8.07;;;4.27;;
4323;SDS011;2175;51.018;6.994;2023-02-08T15:19:16;7.00;;;4.40;;
4323;SDS011;2175;51.018;6.994;2023-02-08T15:24:50;9.23;;;3.93;;
4323;SDS011;2175;51.018;6.994;2023-02-08T15:27:25;6.23;;;3.90;;
4323;SDS011;2175;51.018;6.994;2023-02-08T15:30:00;6.87;;;4.10;;
4323;SDS011;2175;51.018;6.994;2023-02-08T15:32:26;5.70;;;4.03;;
4323;SDS011;2175;51.018;6.994;2023-02-08T15:34:54;6.53;;;3.57;;
4323;SDS011;2175;51.018;6.994;2023-02-08T15:37:33;7.37;;;4.50;;
4323;SDS011;2175;51.018;6.994;2023-02-08T15:40:32;5.13;;;3.30;;
4323;SDS011;2175;51.018;6.994;2023-02-08T15:43:03;5.90;;;3.83;;
4323;SDS011;2175;51.018;6.994;2023-02-08T15:45:37;6.00;;;3.23;;
4323;SDS011;2175;51.018;6.994;2023-02-08T15:48:04;6.70;;;3.53;;
4323;SDS011;2175;51.018;6.994;2023-02-08T15:50:31;5.70;;;3.10;;
4323;SDS011;2175;51.018;6.994;2023-02-08T15:53:02;4.33;;;2.80;;
4323;SDS011;2175;51.018;6.994;2023-02-08T15:55:31;5.87;;;3.70;;
4323;SDS011;2175;51.018;6.994;2023-02-08T15:58:04;5.47;;;3.67;;
4323;SDS011;2175;51.018;6.994;2023-02-08T16:00:36;5.97;;;3.20;;
4323;SDS011;2175;51.018;6.994;2023-02-08T16:03:14;4.90;;;3.60;;
4323;SDS011;2175;51.018;6.994;2023-02-08T16:05:47;6.00;;;3.43;;
4323;SDS011;2175;51.018;6.994;2023-02-08T16:08:19;5.53;;;3.27;;
4323;SDS011;2175;51.018;6.994;2023-02-08T16:10:52;5.80;;;4.47;;
4323;SDS011;2175;51.018;6.994;2023-02-08T16:16:13;8.40;;;3.67;;
4323;SDS011;2175;51.018;6.994;2023-02-08T16:18:58;6.37;;;4.07;;
4323;SDS011;2175;51.018;6.994;2023-02-08T16:21:28;6.03;;;4.13;;
4323;SDS011;2175;51.018;6.994;2023-02-08T16:29:29;7.33;;;3.70;;
4323;SDS011;2175;51.018;6.994;2023-02-08T16:35:13;6.10;;;4.30;;
4323;SDS011;2175;51.018;6.994;2023-02-08T16:37:51;7.90;;;4.17;;
4323;SDS011;2175;51.018;6.994;2023-02-08T16:43:22;10.00;;;3.87;;
4323;SDS011;2175;51.018;6.994;2023-02-08T16:48:39;8.50;;;4.20;;
4323;SDS011;2175;51.018;6.994;2023-02-08T16:51:11;18.83;;;4.30;;
4323;SDS011;2175;51.018;6.994;2023-02-08T16:53:40;7.80;;;3.80;;
4323;SDS011;2175;51.018;6.994;2023-02-08T16:56:07;8.03;;;4.20;;
4323;SDS011;2175;51.018;6.994;2023-02-08T16:58:33;5.20;;;3.73;;
4323;SDS011;2175;51.018;6.994;2023-02-08T17:00:59;9.57;;;4.53;;
4323;SDS011;2175;51.018;6.994;2023-02-08T17:03:25;13.00;;;4.50;;
4323;SDS011;2175;51.018;6.994;2023-02-08T17:05:50;7.83;;;5.03;;
4323;SDS011;2175;51.018;6.994;2023-02-08T17:08:17;8.10;;;4.30;;
4323;SDS011;2175;51.018;6.994;2023-02-08T17:10:44;7.87;;;4.57;;
4323;SDS011;2175;51.018;6.994;2023-02-08T17:13:16;7.20;;;4.47;;
4323;SDS011;2175;51.018;6.994;2023-02-08T17:15:43;9.47;;;4.90;;
4323;SDS011;2175;51.018;6.994;2023-02-08T17:18:09;9.23;;;5.13;;
4323;SDS011;2175;51.018;6.994;2023-02-08T17:20:36;9.27;;;5.13;;
4323;SDS011;2175;51.018;6.994;2023-02-08T17:23:03;8.70;;;4.90;;
4323;SDS011;2175;51.018;6.994;2023-02-08T17:25:30;9.13;;;4.77;;
4323;SDS011;2175;51.018;6.994;2023-02-08T17:27:58;9.07;;;5.23;;
4323;SDS011;2175;51.018;6.994;2023-02-08T17:30:30;9.30;;;4.95;;
4323;SDS011;2175;51.018;6.994;2023-02-08T17:33:01;11.00;;;5.80;;
4323;SDS011;2175;51.018;6.994;2023-02-08T17:35:36;8.67;;;5.40;;
4323;SDS011;2175;51.018;6.994;2023-02-08T17:38:03;7.78;;;4.53;;
4323;SDS011;2175;51.018;6.994;2023-02-08T17:40:30;7.67;;;5.03;;
4323;SDS011;2175;51.018;6.994;2023-02-08T17:42:58;9.75;;;5.00;;
4323;SDS011;2175;51.018;6.994;2023-02-08T17:45:24;9.37;;;5.70;;
4323;SDS011;2175;51.018;6.994;2023-02-08T17:47:51;7.95;;;5.88;;
4323;SDS011;2175;51.018;6.994;2023-02-08T17:50:17;12.60;;;5.90;;
4323;SDS011;2175;51.018;6.994;2023-02-08T17:52:43;9.87;;;5.80;;
4323;SDS011;2175;51.018;6.994;2023-02-08T17:55:10;9.85;;;5.97;;
4323;SDS011;2175;51.018;6.994;2023-02-08T17:57:38;10.25;;;5.95;;
4323;SDS011;2175;51.018;6.994;2023-02-08T18:00:05;11.48;;;6.05;;
4323;SDS011;2175;51.018;6.994;2023-02-08T18:02:43;15.55;;;6.80;;